sensor_id;sensor_type;location;lat;lon;timestamp;temperature;humidity
18712;DHT22;9485;49.386;8.674;2024-01-06T00:03:05;9.20;97.10
18712;DHT22;9485;49.386;8.674;2024-01-06T00:08:27;9.10;97.10
18712;DHT22;9485;49.386;8.674;2024-01-06T00:13:48;9.10;97.40
18712;DHT22;9485;49.386;8.674;2024-01-06T00:19:08;9.10;97.10
18712;DHT22;9485;49.386;8.674;2024-01-06T00:24:31;9.10;97.10
18712;DHT22;9485;49.386;8.674;2024-01-06T00:29:51;9.10;97.00
18712;DHT22;9485;49.386;8.674;2024-01-06T00:35:12;9.10;97.10
18712;DHT22;9485;49.386;8.674;2024-01-06T00:40:34;9.00;97.10
18712;DHT22;9485;49.386;8.674;2024-01-06T00:45:55;9.00;97.00
18712;DHT22;9485;49.386;8.674;2024-01-06T00:51:15;9.00;97.00
18712;DHT22;9485;49.386;8.674;2024-01-06T00:56:37;9.00;97.00
18712;DHT22;9485;49.386;8.674;2024-01-06T01:01:58;8.90;96.90
18712;DHT22;9485;49.386;8.674;2024-01-06T01:07:19;8.90;97.00
18712;DHT22;9485;49.386;8.674;2024-01-06T01:12:41;8.90;97.00
18712;DHT22;9485;49.386;8.674;2024-01-06T01:18:04;8.90;97.10
18712;DHT22;9485;49.386;8.674;2024-01-06T01:23:24;8.90;97.30
18712;DHT22;9485;49.386;8.674;2024-01-06T01:28:47;8.90;97.50
18712;DHT22;9485;49.386;8.674;2024-01-06T01:34:07;8.90;97.50
18712;DHT22;9485;49.386;8.674;2024-01-06T01:39:27;8.90;97.70
18712;DHT22;9485;49.386;8.674;2024-01-06T01:44:50;8.90;97.60
18712;DHT22;9485;49.386;8.674;2024-01-06T01:50:12;9.00;97.60
18712;DHT22;9485;49.386;8.674;2024-01-06T01:55:33;9.00;97.70
18712;DHT22;9485;49.386;8.674;2024-01-06T02:00:55;9.00;97.90
18712;DHT22;9485;49.386;8.674;2024-01-06T02:06:16;9.10;98.10
18712;DHT22;9485;49.386;8.674;2024-01-06T02:11:36;9.20;98.30
18712;DHT22;9485;49.386;8.674;2024-01-06T02:16:59;9.30;98.40
18712;DHT22;9485;49.386;8.674;2024-01-06T02:22:21;9.40;98.50
18712;DHT22;9485;49.386;8.674;2024-01-06T02:27:42;9.40;98.80
18712;DHT22;9485;49.386;8.674;2024-01-06T02:33:02;9.50;98.50
18712;DHT22;9485;49.386;8.674;2024-01-06T02:38:24;9.60;98.40
18712;DHT22;9485;49.386;8.674;2024-01-06T02:43:46;9.70;98.30
18712;DHT22;9485;49.386;8.674;2024-01-06T02:49:07;9.70;98.30
18712;DHT22;9485;49.386;8.674;2024-01-06T02:54:29;9.70;98.20
18712;DHT22;9485;49.386;8.674;2024-01-06T02:59:50;9.80;98.20
18712;DHT22;9485;49.386;8.674;2024-01-06T03:05:11;9.80;98.20
18712;DHT22;9485;49.386;8.674;2024-01-06T03:10:32;9.80;98.20
18712;DHT22;9485;49.386;8.674;2024-01-06T03:15:53;9.80;98.00
18712;DHT22;9485;49.386;8.674;2024-01-06T03:21:17;9.80;98.00
18712;DHT22;9485;49.386;8.674;2024-01-06T03:26:40;9.80;97.80
18712;DHT22;9485;49.386;8.674;2024-01-06T03:32:01;9.80;97.90
18712;DHT22;9485;49.386;8.674;2024-01-06T03:37:22;9.80;98.00
18712;DHT22;9485;49.386;8.674;2024-01-06T03:42:43;9.80;98.00
18712;DHT22;9485;49.386;8.674;2024-01-06T03:48:05;9.80;97.90
18712;DHT22;9485;49.386;8.674;2024-01-06T03:53:26;9.80;98.40
18712;DHT22;9485;49.386;8.674;2024-01-06T03:58:47;9.80;98.10
18712;DHT22;9485;49.386;8.674;2024-01-06T04:04:08;9.80;97.90
18712;DHT22;9485;49.386;8.674;2024-01-06T04:09:28;9.80;98.00
18712;DHT22;9485;49.386;8.674;2024-01-06T04:14:50;9.80;98.00
18712;DHT22;9485;49.386;8.674;2024-01-06T04:20:11;9.80;97.90
18712;DHT22;9485;49.386;8.674;2024-01-06T04:25:32;9.80;97.80
18712;DHT22;9485;49.386;8.674;2024-01-06T04:30:54;9.80;97.80
18712;DHT22;9485;49.386;8.674;2024-01-06T04:36:15;9.80;97.80
18712;DHT22;9485;49.386;8.674;2024-01-06T04:41:35;9.70;97.90
18712;DHT22;9485;49.386;8.674;2024-01-06T04:46:57;9.80;98.00
18712;DHT22;9485;49.386;8.674;2024-01-06T04:52:17;9.80;97.90
18712;DHT22;9485;49.386;8.674;2024-01-06T04:57:38;9.80;98.00
18712;DHT22;9485;49.386;8.674;2024-01-06T05:03:00;9.90;98.00
18712;DHT22;9485;49.386;8.674;2024-01-06T05:08:20;9.90;98.00
18712;DHT22;9485;49.386;8.674;2024-01-06T05:13:41;9.90;98.10
18712;DHT22;9485;49.386;8.674;2024-01-06T05:19:03;9.90;98.40
18712;DHT22;9485;49.386;8.674;2024-01-06T05:24:24;9.90;98.10
18712;DHT22;9485;49.386;8.674;2024-01-06T05:29:44;9.90;98.20
18712;DHT22;9485;49.386;8.674;2024-01-06T05:35:07;10.00;98.20
18712;DHT22;9485;49.386;8.674;2024-01-06T05:40:27;10.00;98.00
18712;DHT22;9485;49.386;8.674;2024-01-06T05:45:48;10.00;98.10
18712;DHT22;9485;49.386;8.674;2024-01-06T05:51:10;10.00;98.10
18712;DHT22;9485;49.386;8.674;2024-01-06T05:56:30;10.00;98.00
18712;DHT22;9485;49.386;8.674;2024-01-06T06:01:51;10.10;98.10
18712;DHT22;9485;49.386;8.674;2024-01-06T06:07:13;10.10;98.10
18712;DHT22;9485;49.386;8.674;2024-01-06T06:12:34;10.10;98.00
18712;DHT22;9485;49.386;8.674;2024-01-06T06:17:55;10.10;98.10
18712;DHT22;9485;49.386;8.674;2024-01-06T06:23:20;10.10;98.10
18712;DHT22;9485;49.386;8.674;2024-01-06T06:28:40;10.10;97.90
18712;DHT22;9485;49.386;8.674;2024-01-06T06:34:01;10.10;98.00
18712;DHT22;9485;49.386;8.674;2024-01-06T06:39:23;10.10;98.00
18712;DHT22;9485;49.386;8.674;2024-01-06T06:44:43;10.20;97.80
18712;DHT22;9485;49.386;8.674;2024-01-06T06:50:04;10.20;97.90
18712;DHT22;9485;49.386;8.674;2024-01-06T06:55:27;10.10;97.90
18712;DHT22;9485;49.386;8.674;2024-01-06T07:00:47;10.10;97.80
18712;DHT22;9485;49.386;8.674;2024-01-06T07:06:08;10.10;97.90
18712;DHT22;9485;49.386;8.674;2024-01-06T07:11:32;10.10;97.80
18712;DHT22;9485;49.386;8.674;2024-01-06T07:16:53;10.10;97.70
18712;DHT22;9485;49.386;8.674;2024-01-06T07:22:13;10.10;98.10
18712;DHT22;9485;49.386;8.674;2024-01-06T07:27:37;10.10;97.80
18712;DHT22;9485;49.386;8.674;2024-01-06T07:32:57;10.10;97.70
18712;DHT22;9485;49.386;8.674;2024-01-06T07:38:18;10.10;97.80
18712;DHT22;9485;49.386;8.674;2024-01-06T07:43:40;10.10;97.80
18712;DHT22;9485;49.386;8.674;2024-01-06T07:49:00;10.00;97.80
18712;DHT22;9485;49.386;8.674;2024-01-06T07:54:21;10.00;98.00
18712;DHT22;9485;49.386;8.674;2024-01-06T07:59:43;10.00;98.00
18712;DHT22;9485;49.386;8.674;2024-01-06T08:05:04;10.00;97.90
18712;DHT22;9485;49.386;8.674;2024-01-06T08:10:26;10.00;98.00
18712;DHT22;9485;49.386;8.674;2024-01-06T08:15:47;10.00;98.10
18712;DHT22;9485;49.386;8.674;2024-01-06T08:21:08;10.10;98.00
18712;DHT22;9485;49.386;8.674;2024-01-06T08:26:29;10.10;98.00
18712;DHT22;9485;49.386;8.674;2024-01-06T08:31:51;10.00;97.90
18712;DHT22;9485;49.386;8.674;2024-01-06T08:37:13;10.00;97.90
18712;DHT22;9485;49.386;8.674;2024-01-06T08:42:34;10.00;98.00
18712;DHT22;9485;49.386;8.674;2024-01-06T08:47:56;10.00;98.10
18712;DHT22;9485;49.386;8.674;2024-01-06T08:53:17;10.00;98.00
18712;DHT22;9485;49.386;8.674;2024-01-06T08:58:38;10.00;98.00
18712;DHT22;9485;49.386;8.674;2024-01-06T09:04:00;10.00;98.00
18712;DHT22;9485;49.386;8.674;2024-01-06T09:09:20;9.90;98.00
18712;DHT22;9485;49.386;8.674;2024-01-06T09:14:42;9.90;98.10
18712;DHT22;9485;49.386;8.674;2024-01-06T09:20:05;9.90;98.20
18712;DHT22;9485;49.386;8.674;2024-01-06T09:25:26;9.90;98.20
18712;DHT22;9485;49.386;8.674;2024-01-06T09:30:47;10.00;98.40
18712;DHT22;9485;49.386;8.674;2024-01-06T09:36:09;10.00;98.30
18712;DHT22;9485;49.386;8.674;2024-01-06T09:41:31;10.00;98.30
18712;DHT22;9485;49.386;8.674;2024-01-06T09:46:52;10.00;98.40
18712;DHT22;9485;49.386;8.674;2024-01-06T09:52:21;10.10;98.50
18712;DHT22;9485;49.386;8.674;2024-01-06T09:57:45;10.10;98.50
18712;DHT22;9485;49.386;8.674;2024-01-06T10:03:05;10.10;98.50
18712;DHT22;9485;49.386;8.674;2024-01-06T10:08:29;10.10;98.50
18712;DHT22;9485;49.386;8.674;2024-01-06T10:13:52;10.10;98.40
18712;DHT22;9485;49.386;8.674;2024-01-06T10:19:13;10.20;98.60
18712;DHT22;9485;49.386;8.674;2024-01-06T10:24:37;10.20;98.70
18712;DHT22;9485;49.386;8.674;2024-01-06T10:29:57;10.20;98.70
18712;DHT22;9485;49.386;8.674;2024-01-06T10:35:18;10.30;98.90
18712;DHT22;9485;49.386;8.674;2024-01-06T10:40:40;10.30;98.90
18712;DHT22;9485;49.386;8.674;2024-01-06T10:46:08;10.40;98.80
18712;DHT22;9485;49.386;8.674;2024-01-06T10:51:32;10.40;98.80
18712;DHT22;9485;49.386;8.674;2024-01-06T10:56:57;10.40;98.80
18712;DHT22;9485;49.386;8.674;2024-01-06T11:02:19;10.40;98.70
18712;DHT22;9485;49.386;8.674;2024-01-06T11:07:40;10.40;99.10
18712;DHT22;9485;49.386;8.674;2024-01-06T11:13:13;10.50;99.00
18712;DHT22;9485;49.386;8.674;2024-01-06T11:18:40;10.50;98.70
18712;DHT22;9485;49.386;8.674;2024-01-06T11:24:14;10.50;99.10
18712;DHT22;9485;49.386;8.674;2024-01-06T11:29:37;10.60;99.00
18712;DHT22;9485;49.386;8.674;2024-01-06T11:35:06;10.60;99.10
18712;DHT22;9485;49.386;8.674;2024-01-06T11:40:33;10.70;98.90
18712;DHT22;9485;49.386;8.674;2024-01-06T11:45:58;10.70;98.90
18712;DHT22;9485;49.386;8.674;2024-01-06T11:51:20;10.80;99.00
18712;DHT22;9485;49.386;8.674;2024-01-06T11:56:40;10.80;99.20
18712;DHT22;9485;49.386;8.674;2024-01-06T12:02:02;10.90;99.40
18712;DHT22;9485;49.386;8.674;2024-01-06T12:07:23;10.90;99.20
18712;DHT22;9485;49.386;8.674;2024-01-06T12:12:54;11.00;99.20
18712;DHT22;9485;49.386;8.674;2024-01-06T12:18:18;11.00;98.70
18712;DHT22;9485;49.386;8.674;2024-01-06T12:23:39;11.00;98.90
18712;DHT22;9485;49.386;8.674;2024-01-06T12:29:04;11.00;98.90
18712;DHT22;9485;49.386;8.674;2024-01-06T12:34:25;11.00;98.60
18712;DHT22;9485;49.386;8.674;2024-01-06T12:39:47;11.00;98.70
18712;DHT22;9485;49.386;8.674;2024-01-06T12:45:08;11.00;98.80
18712;DHT22;9485;49.386;8.674;2024-01-06T12:50:31;11.00;98.90
18712;DHT22;9485;49.386;8.674;2024-01-06T12:55:52;11.10;99.00
18712;DHT22;9485;49.386;8.674;2024-01-06T13:01:13;11.10;99.10
18712;DHT22;9485;49.386;8.674;2024-01-06T13:06:35;11.10;99.00
18712;DHT22;9485;49.386;8.674;2024-01-06T13:11:56;11.10;98.80
18712;DHT22;9485;49.386;8.674;2024-01-06T13:17:19;11.10;98.80
18712;DHT22;9485;49.386;8.674;2024-01-06T13:22:41;11.10;98.90
18712;DHT22;9485;49.386;8.674;2024-01-06T13:28:02;11.10;98.70
18712;DHT22;9485;49.386;8.674;2024-01-06T13:33:23;11.10;99.00
18712;DHT22;9485;49.386;8.674;2024-01-06T13:38:45;11.10;99.10
18712;DHT22;9485;49.386;8.674;2024-01-06T13:44:07;11.20;99.10
18712;DHT22;9485;49.386;8.674;2024-01-06T13:49:28;11.20;99.00
18712;DHT22;9485;49.386;8.674;2024-01-06T13:54:52;11.20;99.00
18712;DHT22;9485;49.386;8.674;2024-01-06T14:00:13;11.20;98.70
18712;DHT22;9485;49.386;8.674;2024-01-06T14:05:37;11.20;98.90
18712;DHT22;9485;49.386;8.674;2024-01-06T14:11:00;11.20;99.00
18712;DHT22;9485;49.386;8.674;2024-01-06T14:16:21;11.30;99.00
18712;DHT22;9485;49.386;8.674;2024-01-06T14:21:41;11.30;99.00
18712;DHT22;9485;49.386;8.674;2024-01-06T14:27:03;11.30;98.90
18712;DHT22;9485;49.386;8.674;2024-01-06T14:32:24;11.30;98.70
18712;DHT22;9485;49.386;8.674;2024-01-06T14:37:44;11.40;98.70
18712;DHT22;9485;49.386;8.674;2024-01-06T14:43:06;11.30;98.80
18712;DHT22;9485;49.386;8.674;2024-01-06T14:48:27;11.30;98.70
18712;DHT22;9485;49.386;8.674;2024-01-06T14:53:48;11.30;98.90
18712;DHT22;9485;49.386;8.674;2024-01-06T14:59:09;11.30;99.00
18712;DHT22;9485;49.386;8.674;2024-01-06T15:04:30;11.40;99.00
18712;DHT22;9485;49.386;8.674;2024-01-06T15:09:51;11.40;99.10
18712;DHT22;9485;49.386;8.674;2024-01-06T15:15:14;11.40;99.10
18712;DHT22;9485;49.386;8.674;2024-01-06T15:20:34;11.40;99.00
18712;DHT22;9485;49.386;8.674;2024-01-06T15:25:55;11.40;98.90
18712;DHT22;9485;49.386;8.674;2024-01-06T15:31:17;11.40;98.60
18712;DHT22;9485;49.386;8.674;2024-01-06T15:36:38;11.40;98.50
18712;DHT22;9485;49.386;8.674;2024-01-06T15:41:58;11.40;98.50
18712;DHT22;9485;49.386;8.674;2024-01-06T15:47:20;11.30;98.50
18712;DHT22;9485;49.386;8.674;2024-01-06T15:52:41;11.30;98.40
18712;DHT22;9485;49.386;8.674;2024-01-06T15:58:04;11.20;98.50
18712;DHT22;9485;49.386;8.674;2024-01-06T16:03:26;11.20;98.50
18712;DHT22;9485;49.386;8.674;2024-01-06T16:08:47;11.10;98.50
18712;DHT22;9485;49.386;8.674;2024-01-06T16:14:07;11.10;98.70
18712;DHT22;9485;49.386;8.674;2024-01-06T16:19:29;11.10;98.70
18712;DHT22;9485;49.386;8.674;2024-01-06T16:24:50;11.00;98.60
18712;DHT22;9485;49.386;8.674;2024-01-06T16:30:11;11.00;98.60
18712;DHT22;9485;49.386;8.674;2024-01-06T16:35:34;10.90;98.60
18712;DHT22;9485;49.386;8.674;2024-01-06T16:40:56;10.80;98.60
18712;DHT22;9485;49.386;8.674;2024-01-06T16:46:16;10.80;98.80
18712;DHT22;9485;49.386;8.674;2024-01-06T16:51:38;10.70;98.80
18712;DHT22;9485;49.386;8.674;2024-01-06T16:56:59;10.60;98.90
18712;DHT22;9485;49.386;8.674;2024-01-06T17:02:22;10.60;99.20
18712;DHT22;9485;49.386;8.674;2024-01-06T17:07:44;10.60;99.60
18712;DHT22;9485;49.386;8.674;2024-01-06T17:13:06;10.50;99.40
18712;DHT22;9485;49.386;8.674;2024-01-06T17:18:27;10.60;99.60
18712;DHT22;9485;49.386;8.674;2024-01-06T17:23:49;10.50;99.60
18712;DHT22;9485;49.386;8.674;2024-01-06T17:29:12;10.50;99.70
18712;DHT22;9485;49.386;8.674;2024-01-06T17:34:32;10.60;99.80
18712;DHT22;9485;49.386;8.674;2024-01-06T17:39:54;10.50;99.90
18712;DHT22;9485;49.386;8.674;2024-01-06T17:45:14;10.60;99.90
18712;DHT22;9485;49.386;8.674;2024-01-06T17:50:36;10.60;99.90
18712;DHT22;9485;49.386;8.674;2024-01-06T17:55:58;10.60;99.90
18712;DHT22;9485;49.386;8.674;2024-01-06T18:01:19;10.70;99.90
18712;DHT22;9485;49.386;8.674;2024-01-06T18:06:39;10.70;99.90
18712;DHT22;9485;49.386;8.674;2024-01-06T18:12:03;10.70;99.90
18712;DHT22;9485;49.386;8.674;2024-01-06T18:17:25;10.70;99.90
18712;DHT22;9485;49.386;8.674;2024-01-06T18:22:46;10.70;99.90
18712;DHT22;9485;49.386;8.674;2024-01-06T18:28:08;10.70;99.90
18712;DHT22;9485;49.386;8.674;2024-01-06T18:33:29;10.70;99.90
18712;DHT22;9485;49.386;8.674;2024-01-06T18:38:50;10.70;99.90
18712;DHT22;9485;49.386;8.674;2024-01-06T18:44:12;10.70;99.90
18712;DHT22;9485;49.386;8.674;2024-01-06T18:49:33;10.60;99.90
18712;DHT22;9485;49.386;8.674;2024-01-06T18:54:53;10.60;99.90
18712;DHT22;9485;49.386;8.674;2024-01-06T19:00:15;10.60;99.90
18712;DHT22;9485;49.386;8.674;2024-01-06T19:05:38;10.50;99.70
18712;DHT22;9485;49.386;8.674;2024-01-06T19:10:58;10.40;99.60
18712;DHT22;9485;49.386;8.674;2024-01-06T19:16:20;10.30;99.60
18712;DHT22;9485;49.386;8.674;2024-01-06T19:21:41;10.20;99.60
18712;DHT22;9485;49.386;8.674;2024-01-06T19:27:01;10.10;99.80
18712;DHT22;9485;49.386;8.674;2024-01-06T19:32:23;10.00;99.90
18712;DHT22;9485;49.386;8.674;2024-01-06T19:37:44;10.00;99.90
18712;DHT22;9485;49.386;8.674;2024-01-06T19:43:05;10.00;99.90
18712;DHT22;9485;49.386;8.674;2024-01-06T19:48:27;10.00;99.90
18712;DHT22;9485;49.386;8.674;2024-01-06T19:53:47;9.90;99.90
18712;DHT22;9485;49.386;8.674;2024-01-06T19:59:08;9.90;99.90
18712;DHT22;9485;49.386;8.674;2024-01-06T20:04:31;9.80;99.90
18712;DHT22;9485;49.386;8.674;2024-01-06T20:09:52;9.80;99.90
18712;DHT22;9485;49.386;8.674;2024-01-06T20:15:12;10.70;99.90
18712;DHT22;9485;49.386;8.674;2024-01-06T20:20:34;9.80;99.90
18712;DHT22;9485;49.386;8.674;2024-01-06T20:25:55;9.80;99.90
18712;DHT22;9485;49.386;8.674;2024-01-06T20:31:16;9.70;99.90
18712;DHT22;9485;49.386;8.674;2024-01-06T20:36:38;9.70;99.90
18712;DHT22;9485;49.386;8.674;2024-01-06T20:42:00;9.70;99.90
18712;DHT22;9485;49.386;8.674;2024-01-06T20:47:20;9.60;99.90
18712;DHT22;9485;49.386;8.674;2024-01-06T20:52:42;9.60;99.90
18712;DHT22;9485;49.386;8.674;2024-01-06T20:58:03;9.50;99.70
18712;DHT22;9485;49.386;8.674;2024-01-06T21:03:23;9.50;99.90
18712;DHT22;9485;49.386;8.674;2024-01-06T21:08:46;9.50;99.90
18712;DHT22;9485;49.386;8.674;2024-01-06T21:14:07;9.40;99.90
18712;DHT22;9485;49.386;8.674;2024-01-06T21:19:27;9.40;99.90
18712;DHT22;9485;49.386;8.674;2024-01-06T21:24:49;9.40;99.90
18712;DHT22;9485;49.386;8.674;2024-01-06T21:30:10;9.40;99.90
18712;DHT22;9485;49.386;8.674;2024-01-06T21:35:31;9.30;99.90
18712;DHT22;9485;49.386;8.674;2024-01-06T21:40:52;9.30;99.90
18712;DHT22;9485;49.386;8.674;2024-01-06T21:46:13;9.30;99.90
18712;DHT22;9485;49.386;8.674;2024-01-06T21:51:33;9.30;99.90
18712;DHT22;9485;49.386;8.674;2024-01-06T21:57:07;9.20;99.90
18712;DHT22;9485;49.386;8.674;2024-01-06T22:02:27;9.20;99.90
18712;DHT22;9485;49.386;8.674;2024-01-06T22:07:48;9.20;99.90
18712;DHT22;9485;49.386;8.674;2024-01-06T22:13:09;9.20;99.90
18712;DHT22;9485;49.386;8.674;2024-01-06T22:18:30;9.20;99.90
18712;DHT22;9485;49.386;8.674;2024-01-06T22:23:50;9.20;99.90
18712;DHT22;9485;49.386;8.674;2024-01-06T22:29:13;9.20;99.90
18712;DHT22;9485;49.386;8.674;2024-01-06T22:34:33;9.20;99.90
18712;DHT22;9485;49.386;8.674;2024-01-06T22:39:54;9.20;99.90
18712;DHT22;9485;49.386;8.674;2024-01-06T22:45:15;9.20;99.90
18712;DHT22;9485;49.386;8.674;2024-01-06T22:50:36;9.20;99.90
18712;DHT22;9485;49.386;8.674;2024-01-06T22:55:56;9.20;99.90
18712;DHT22;9485;49.386;8.674;2024-01-06T23:01:18;9.20;99.90
18712;DHT22;9485;49.386;8.674;2024-01-06T23:06:39;9.20;99.90
18712;DHT22;9485;49.386;8.674;2024-01-06T23:12:00;9.20;99.90
18712;DHT22;9485;49.386;8.674;2024-01-06T23:17:22;9.20;99.90
18712;DHT22;9485;49.386;8.674;2024-01-06T23:22:43;9.20;99.90
18712;DHT22;9485;49.386;8.674;2024-01-06T23:28:04;9.30;99.90
18712;DHT22;9485;49.386;8.674;2024-01-06T23:33:26;9.30;99.90
18712;DHT22;9485;49.386;8.674;2024-01-06T23:38:46;9.30;99.90
18712;DHT22;9485;49.386;8.674;2024-01-06T23:44:07;9.40;99.90
18712;DHT22;9485;49.386;8.674;2024-01-06T23:49:29;9.40;99.90
18712;DHT22;9485;49.386;8.674;2024-01-06T23:54:49;9.40;99.90
